Time;durP1;ratioP1;P1;durP2;ratioP2;P2;SDS_P1;SDS_P2;PMS_P1;PMS_P2;Temp;Humidity;BMP_temperature;BMP_pressure;BME280_temperature;BME280_humidity;BME280_pressure;Samples;Min_cycle;Max_cycle;Signal;HPM_P1;HPM_P2
2022/05/08 00:00:30;;;;;;;8.60;7.70;;;;;;;;;;5072584;28;20422;-61
2022/05/08 00:02:57;;;;;;;8.80;8.07;;;;;;;;;;5073242;28;20167;-60
2022/05/08 00:05:23;;;;;;;8.50;7.90;;;;;;;;;;5073155;28;20743;-61
2022/05/08 00:07:49;;;;;;;7.90;7.37;;;;;;;;;;5073424;28;20403;-61
2022/05/08 00:10:15;;;;;;;8.43;7.73;;;;;;;;;;5072998;28;20477;-61
2022/05/08 00:12:41;;;;;;;8.23;7.50;;;;;;;;;;5073080;28;20405;-61
2022/05/08 00:15:07;;;;;;;8.80;8.20;;;;;;;;;;5073115;28;20451;-61
2022/05/08 00:17:36;;;;;;;9.23;8.47;;;;;;;;;;5073222;28;20757;-62
2022/05/08 00:20:06;;;;;;;9.20;8.53;;;;;;;;;;5073076;28;20413;-62
2022/05/08 00:22:32;;;;;;;8.63;7.63;;;;;;;;;;5073017;28;20463;-61
2022/05/08 00:24:59;;;;;;;8.10;7.27;;;;;;;;;;5074497;28;20841;-61
2022/05/08 00:27:25;;;;;;;8.07;7.57;;;;;;;;;;5077021;28;20410;-61
2022/05/08 00:29:51;;;;;;;8.40;7.60;;;;;;;;;;5076659;28;20820;-61
2022/05/08 00:32:18;;;;;;;7.83;7.33;;;;;;;;;;5075449;28;20513;-61
2022/05/08 00:34:44;;;;;;;8.37;7.63;;;;;;;;;;5076879;28;20421;-61
2022/05/08 00:37:12;;;;;;;9.20;8.30;;;;;;;;;;5076548;28;20539;-61
2022/05/08 00:39:43;;;;;;;10.20;8.23;;;;;;;;;;5076328;28;20515;-62
2022/05/08 00:42:09;;;;;;;8.90;8.20;;;;;;;;;;5076509;28;20829;-61
2022/05/08 00:44:35;;;;;;;8.13;7.33;;;;;;;;;;5076535;28;20440;-61
2022/05/08 00:47:01;;;;;;;8.70;8.07;;;;;;;;;;5076493;28;20421;-61
2022/05/08 00:49:27;;;;;;;7.73;7.20;;;;;;;;;;5076307;28;20898;-61
2022/05/08 00:51:53;;;;;;;9.33;7.63;;;;;;;;;;5076256;28;20484;-61
2022/05/08 00:54:19;;;;;;;9.30;8.40;;;;;;;;;;5076286;28;20422;-61
2022/05/08 00:56:45;;;;;;;11.00;9.60;;;;;;;;;;5076287;28;20489;-60
2022/05/08 00:59:11;;;;;;;9.50;8.50;;;;;;;;;;5076394;28;20412;-61
2022/05/08 01:01:37;;;;;;;8.80;8.20;;;;;;;;;;5076182;28;20916;-62
2022/05/08 01:04:03;;;;;;;8.47;7.97;;;;;;;;;;5076103;28;20897;-61
2022/05/08 01:06:31;;;;;;;9.40;8.20;;;;;;;;;;5076186;28;20410;-61
2022/05/08 01:08:57;;;;;;;8.33;7.70;;;;;;;;;;5076034;28;20426;-62
2022/05/08 01:11:24;;;;;;;11.40;8.67;;;;;;;;;;5075915;28;20504;-61
2022/05/08 01:13:50;;;;;;;11.43;8.27;;;;;;;;;;5076042;28;20399;-61
2022/05/08 01:16:19;;;;;;;8.80;8.20;;;;;;;;;;5075936;28;20456;-61
2022/05/08 01:18:46;;;;;;;9.50;8.70;;;;;;;;;;5075891;28;20407;-62
2022/05/08 01:21:22;;;;;;;8.80;8.10;;;;;;;;;;5076087;28;20805;-61
2022/05/08 01:23:48;;;;;;;9.83;8.97;;;;;;;;;;5075799;28;20486;-62
2022/05/08 01:26:24;;;;;;;9.40;8.80;;;;;;;;;;5075791;28;20466;-62
2022/05/08 01:28:50;;;;;;;9.67;8.87;;;;;;;;;;5075656;28;20535;-61
2022/05/08 01:31:16;;;;;;;16.23;8.80;;;;;;;;;;5075586;28;20458;-62
2022/05/08 01:33:42;;;;;;;10.10;9.20;;;;;;;;;;5075575;28;20912;-61
2022/05/08 01:36:08;;;;;;;9.20;8.47;;;;;;;;;;5073980;28;20425;-62
2022/05/08 01:38:34;;;;;;;9.80;9.00;;;;;;;;;;5074320;28;20422;-62
2022/05/08 01:41:04;;;;;;;10.47;9.30;;;;;;;;;;5075294;28;20465;-61
2022/05/08 01:43:37;;;;;;;12.97;9.57;;;;;;;;;;5075449;28;20903;-61
2022/05/08 01:46:06;;;;;;;12.03;9.43;;;;;;;;;;5075625;28;20481;-61
2022/05/08 01:48:35;;;;;;;10.90;9.90;;;;;;;;;;5075337;28;20402;-63
2022/05/08 01:51:02;;;;;;;12.20;10.90;;;;;;;;;;5075176;28;20474;-61
2022/05/08 01:53:31;;;;;;;10.10;9.40;;;;;;;;;;5075292;28;20463;-61
2022/05/08 01:55:57;;;;;;;10.70;10.00;;;;;;;;;;5075083;28;20913;-61
2022/05/08 01:58:24;;;;;;;10.07;9.23;;;;;;;;;;5075152;28;20399;-61
2022/05/08 02:00:50;;;;;;;9.87;9.30;;;;;;;;;;5075366;28;20405;-61
2022/05/08 02:03:16;;;;;;;10.20;9.30;;;;;;;;;;5073747;28;20426;-61
2022/05/08 02:05:43;;;;;;;10.07;9.37;;;;;;;;;;5075316;28;20442;-61
2022/05/08 02:08:10;;;;;;;10.00;9.20;;;;;;;;;;5074979;28;20398;-62
2022/05/08 02:10:36;;;;;;;9.43;8.50;;;;;;;;;;5074792;28;20480;-63
2022/05/08 02:13:02;;;;;;;10.20;9.30;;;;;;;;;;5074900;28;20410;-62
2022/05/08 02:15:31;;;;;;;9.90;9.20;;;;;;;;;;5074856;28;20831;-62
2022/05/08 02:18:01;;;;;;;9.53;8.83;;;;;;;;;;5074743;28;20402;-62
2022/05/08 02:20:27;;;;;;;10.67;9.67;;;;;;;;;;5074653;28;20947;-62
2022/05/08 02:22:53;;;;;;;11.30;10.10;;;;;;;;;;5074591;28;20764;-62
2022/05/08 02:25:19;;;;;;;10.00;9.20;;;;;;;;;;5074516;28;20799;-62
2022/05/08 02:27:49;;;;;;;11.50;10.70;;;;;;;;;;5074526;28;20402;-62
2022/05/08 02:30:16;;;;;;;10.40;9.67;;;;;;;;;;5074381;28;20466;-63
2022/05/08 02:32:42;;;;;;;10.43;9.70;;;;;;;;;;5073154;28;20422;-61
2022/05/08 02:35:11;;;;;;;10.70;9.93;;;;;;;;;;5074385;28;20414;-61
2022/05/08 02:37:38;;;;;;;11.10;10.20;;;;;;;;;;5074319;28;20432;-62
2022/05/08 02:40:06;;;;;;;10.33;9.47;;;;;;;;;;5074024;28;20477;-62
2022/05/08 02:42:32;;;;;;;12.10;10.90;;;;;;;;;;5074222;28;20761;-61
2022/05/08 02:44:58;;;;;;;10.90;10.10;;;;;;;;;;5074201;28;20429;-61
2022/05/08 02:47:24;;;;;;;12.27;10.70;;;;;;;;;;5073384;28;20406;-61
2022/05/08 02:49:50;;;;;;;10.40;9.70;;;;;;;;;;5073939;28;20465;-61
2022/05/08 02:52:16;;;;;;;11.77;10.80;;;;;;;;;;5074049;28;20874;-63
2022/05/08 02:54:42;;;;;;;11.60;10.57;;;;;;;;;;5073895;28;20422;-61
2022/05/08 02:59:52;;;;;;;12.60;11.40;;;;;;;;;;5074204;28;20774;-61
2022/05/08 03:02:18;;;;;;;16.83;11.10;;;;;;;;;;5073891;28;20386;-62
2022/05/08 03:04:45;;;;;;;26.20;12.50;;;;;;;;;;5074009;28;20888;-62
2022/05/08 03:07:11;;;;;;;17.57;11.50;;;;;;;;;;5073775;28;20387;-61
2022/05/08 03:09:37;;;;;;;12.70;11.67;;;;;;;;;;5073764;28;20549;-63
2022/05/08 03:12:04;;;;;;;11.67;10.87;;;;;;;;;;5073766;28;20453;-62
2022/05/08 03:14:30;;;;;;;12.30;11.20;;;;;;;;;;5073728;28;20459;-62
2022/05/08 03:16:56;;;;;;;13.03;11.87;;;;;;;;;;5073668;28;20406;-61
2022/05/08 03:19:25;;;;;;;13.27;12.20;;;;;;;;;;5073593;28;20742;-62
2022/05/08 03:21:51;;;;;;;13.57;12.27;;;;;;;;;;5073675;28;20881;-61
2022/05/08 03:24:18;;;;;;;14.20;11.50;;;;;;;;;;5073616;28;20410;-61
2022/05/08 03:26:44;;;;;;;13.63;12.20;;;;;;;;;;5073849;28;20408;-60
2022/05/08 03:29:10;;;;;;;14.70;13.30;;;;;;;;;;5073864;28;20406;-62
2022/05/08 03:31:36;;;;;;;12.47;11.37;;;;;;;;;;5073453;28;20461;-61
2022/05/08 03:34:02;;;;;;;12.57;11.70;;;;;;;;;;5072089;28;20414;-62
2022/05/08 03:36:28;;;;;;;12.83;11.67;;;;;;;;;;5073512;28;20410;-62
2022/05/08 03:38:54;;;;;;;12.37;11.50;;;;;;;;;;5073430;28;20398;-61
2022/05/08 03:41:20;;;;;;;13.23;12.17;;;;;;;;;;5073226;28;20535;-62
2022/05/08 03:43:46;;;;;;;14.03;12.83;;;;;;;;;;5073358;28;20414;-60
2022/05/08 03:46:16;;;;;;;13.87;12.70;;;;;;;;;;5073393;28;20407;-62
2022/05/08 03:48:42;;;;;;;12.93;11.93;;;;;;;;;;5073292;28;20432;-61
2022/05/08 03:51:08;;;;;;;12.10;11.13;;;;;;;;;;5073170;28;20503;-61
2022/05/08 03:53:34;;;;;;;11.67;10.83;;;;;;;;;;5073290;28;20437;-61
2022/05/08 03:56:00;;;;;;;11.07;10.27;;;;;;;;;;5073475;28;20422;-61
2022/05/08 03:58:26;;;;;;;11.30;10.50;;;;;;;;;;5074077;28;20411;-60
2022/05/08 04:00:53;;;;;;;11.27;10.47;;;;;;;;;;5077399;28;20413;-61
2022/05/08 04:03:19;;;;;;;12.47;11.50;;;;;;;;;;5077461;28;20406;-61
2022/05/08 04:05:45;;;;;;;11.60;10.70;;;;;;;;;;5077397;28;20414;-61
2022/05/08 04:08:11;;;;;;;13.07;12.07;;;;;;;;;;5077264;28;20406;-60
2022/05/08 04:10:37;;;;;;;10.70;10.00;;;;;;;;;;5077170;28;20473;-62
2022/05/08 04:13:03;;;;;;;13.57;12.17;;;;;;;;;;5077058;28;20410;-61
2022/05/08 04:18:14;;;;;;;14.83;12.33;;;;;;;;;;5077023;28;20771;-61
2022/05/08 04:20:40;;;;;;;12.60;11.57;;;;;;;;;;5075692;28;20939;-61
2022/05/08 04:25:51;;;;;;;11.80;10.70;;;;;;;;;;5076852;28;20845;-60
2022/05/08 04:28:19;;;;;;;12.20;11.17;;;;;;;;;;5076779;28;20826;-60
2022/05/08 04:30:45;;;;;;;12.30;11.40;;;;;;;;;;5076983;28;20462;-61
2022/05/08 04:33:11;;;;;;;13.37;12.27;;;;;;;;;;5076780;28;20408;-61
2022/05/08 04:35:37;;;;;;;12.23;11.23;;;;;;;;;;5076700;28;20449;-61
2022/05/08 04:38:03;;;;;;;12.93;11.90;;;;;;;;;;5076569;28;20409;-61
2022/05/08 04:40:29;;;;;;;12.60;11.70;;;;;;;;;;5076550;28;20522;-61
2022/05/08 04:42:55;;;;;;;12.63;11.73;;;;;;;;;;5076606;28;20433;-61
2022/05/08 04:45:21;;;;;;;12.97;12.07;;;;;;;;;;5076748;28;20417;-61
2022/05/08 04:47:47;;;;;;;13.20;12.20;;;;;;;;;;5076478;28;20938;-61
2022/05/08 04:50:13;;;;;;;12.00;10.77;;;;;;;;;;5076235;28;20476;-61
2022/05/08 04:52:39;;;;;;;10.83;9.93;;;;;;;;;;5075117;28;20916;-61
2022/05/08 04:55:05;;;;;;;11.83;10.77;;;;;;;;;;5076266;28;20421;-61
2022/05/08 04:57:31;;;;;;;11.07;10.03;;;;;;;;;;5076384;28;20877;-61
2022/05/08 04:59:57;;;;;;;12.20;10.37;;;;;;;;;;5076367;28;20442;-61
2022/05/08 05:02:24;;;;;;;14.57;9.80;;;;;;;;;;5076160;28;20464;-61
2022/05/08 05:04:50;;;;;;;10.30;9.40;;;;;;;;;;5076164;28;20923;-61
2022/05/08 05:07:16;;;;;;;11.67;10.53;;;;;;;;;;5076278;28;20447;-62
2022/05/08 05:09:42;;;;;;;10.33;9.40;;;;;;;;;;5075638;28;20979;-61
2022/05/08 05:12:08;;;;;;;11.10;10.00;;;;;;;;;;5075569;28;20885;-61
2022/05/08 05:14:34;;;;;;;12.40;10.40;;;;;;;;;;5075985;28;20896;-61
2022/05/08 05:17:00;;;;;;;10.87;9.73;;;;;;;;;;5075893;28;20414;-61
2022/05/08 05:19:29;;;;;;;10.73;9.87;;;;;;;;;;5075860;28;20398;-61
2022/05/08 05:21:55;;;;;;;9.67;9.17;;;;;;;;;;5075776;28;20411;-61
2022/05/08 05:24:21;;;;;;;9.97;9.17;;;;;;;;;;5075642;28;20842;-61
2022/05/08 05:26:47;;;;;;;10.43;9.73;;;;;;;;;;5075673;28;20417;-61
2022/05/08 05:29:14;;;;;;;10.50;9.60;;;;;;;;;;5075545;28;20438;-62
2022/05/08 05:31:41;;;;;;;12.20;11.30;;;;;;;;;;5075804;28;20481;-61
2022/05/08 05:34:07;;;;;;;11.50;10.40;;;;;;;;;;5075620;28;20402;-61
2022/05/08 05:36:33;;;;;;;11.97;10.97;;;;;;;;;;5075515;28;20414;-61
2022/05/08 05:38:59;;;;;;;14.53;12.93;;;;;;;;;;5075415;28;20430;-61
2022/05/08 05:41:25;;;;;;;11.20;10.40;;;;;;;;;;5075227;28;20474;-61
2022/05/08 05:43:51;;;;;;;11.57;10.67;;;;;;;;;;5075457;28;20406;-67
2022/05/08 05:49:01;;;;;;;11.10;9.80;;;;;;;;;;5075500;28;20434;-61
2022/05/08 05:51:27;;;;;;;10.77;9.90;;;;;;;;;;5075256;28;20493;-61
2022/05/08 05:53:53;;;;;;;13.70;10.07;;;;;;;;;;5075271;28;20405;-62
2022/05/08 05:56:19;;;;;;;9.70;9.00;;;;;;;;;;5075401;28;20406;-61
2022/05/08 05:58:45;;;;;;;10.97;9.97;;;;;;;;;;5075118;28;20398;-61
2022/05/08 06:01:11;;;;;;;9.97;9.17;;;;;;;;;;5075104;28;20406;-63
2022/05/08 06:03:38;;;;;;;10.70;9.90;;;;;;;;;;5075042;28;20896;-61
2022/05/08 06:06:04;;;;;;;21.93;17.50;;;;;;;;;;5075248;28;20413;-62
2022/05/08 06:08:30;;;;;;;13.77;12.37;;;;;;;;;;5074893;28;20417;-62
2022/05/08 06:10:56;;;;;;;11.90;10.73;;;;;;;;;;5074737;28;20480;-61
2022/05/08 06:13:22;;;;;;;11.53;10.73;;;;;;;;;;5074819;28;20411;-61
2022/05/08 06:15:48;;;;;;;11.37;10.17;;;;;;;;;;5074742;28;20418;-61
2022/05/08 06:18:14;;;;;;;11.67;10.23;;;;;;;;;;5074709;28;20507;-61
2022/05/08 06:20:40;;;;;;;11.60;10.07;;;;;;;;;;5074877;28;20415;-61
2022/05/08 06:23:07;;;;;;;11.23;10.10;;;;;;;;;;5073546;28;20517;-61
2022/05/08 06:25:33;;;;;;;11.30;10.30;;;;;;;;;;5074524;28;20422;-61
2022/05/08 06:27:59;;;;;;;10.53;9.90;;;;;;;;;;5074581;28;20493;-61
2022/05/08 06:30:25;;;;;;;10.70;9.90;;;;;;;;;;5074449;28;20565;-61
2022/05/08 06:32:51;;;;;;;17.73;14.25;;;;;;;;;;5073504;28;20394;-60
2022/05/08 06:35:17;;;;;;;10.80;10.00;;;;;;;;;;5074377;28;20171;-62
2022/05/08 06:37:43;;;;;;;11.90;10.87;;;;;;;;;;5074337;28;20493;-61
2022/05/08 06:40:09;;;;;;;11.23;10.40;;;;;;;;;;5074182;28;20465;-61
2022/05/08 06:42:35;;;;;;;11.93;10.93;;;;;;;;;;5074255;28;20398;-62
2022/05/08 06:45:02;;;;;;;10.33;9.53;;;;;;;;;;5074505;28;20434;-62
2022/05/08 06:47:28;;;;;;;47.03;39.87;;;;;;;;;;5074507;28;20586;-61
2022/05/08 06:49:54;;;;;;;12.80;9.90;;;;;;;;;;5074060;28;20489;-61
2022/05/08 06:52:20;;;;;;;11.03;10.07;;;;;;;;;;5074113;28;20772;-60
2022/05/08 06:54:47;;;;;;;12.00;11.07;;;;;;;;;;5074058;28;20406;-59
2022/05/08 06:57:13;;;;;;;11.20;10.23;;;;;;;;;;5073992;28;20405;-60
2022/05/08 07:02:23;;;;;;;12.13;11.10;;;;;;;;;;5073942;28;20479;-60
2022/05/08 07:04:49;;;;;;;11.80;10.90;;;;;;;;;;5074156;28;20402;-62
2022/05/08 07:07:15;;;;;;;12.47;11.17;;;;;;;;;;5073880;28;20404;-61
2022/05/08 07:09:41;;;;;;;10.67;9.90;;;;;;;;;;5073725;28;20469;-61
2022/05/08 07:12:07;;;;;;;10.93;9.93;;;;;;;;;;5073837;28;20909;-62
2022/05/08 07:14:34;;;;;;;12.23;11.00;;;;;;;;;;5073657;28;20760;-61
2022/05/08 07:17:00;;;;;;;12.40;10.50;;;;;;;;;;5073576;28;20403;-61
2022/05/08 07:19:26;;;;;;;10.63;9.73;;;;;;;;;;5073782;28;20400;-59
2022/05/08 07:21:52;;;;;;;12.60;11.57;;;;;;;;;;5073826;28;20845;-59
2022/05/08 07:24:18;;;;;;;15.03;13.60;;;;;;;;;;5073544;28;20751;-59
2022/05/08 07:26:45;;;;;;;11.50;10.57;;;;;;;;;;5073629;28;20423;-60
2022/05/08 07:29:11;;;;;;;11.33;10.43;;;;;;;;;;5073603;28;20498;-60
2022/05/08 07:31:38;;;;;;;11.37;10.47;;;;;;;;;;5073676;28;20545;-60
2022/05/08 07:36:49;;;;;;;11.40;10.70;;;;;;;;;;5073419;28;20945;-60
2022/05/08 07:39:15;;;;;;;11.07;10.17;;;;;;;;;;5073203;28;20401;-59
2022/05/08 07:41:41;;;;;;;10.83;10.13;;;;;;;;;;5073509;28;20413;-60
2022/05/08 07:44:07;;;;;;;12.03;11.00;;;;;;;;;;5073446;28;20411;-60
2022/05/08 07:46:33;;;;;;;11.20;10.33;;;;;;;;;;5073368;28;20413;-60
2022/05/08 07:48:59;;;;;;;10.77;9.80;;;;;;;;;;5073573;28;20504;-61
2022/05/08 07:51:25;;;;;;;11.43;10.30;;;;;;;;;;5073370;28;20597;-64
2022/05/08 07:53:51;;;;;;;11.40;10.50;;;;;;;;;;5073347;28;20404;-61
2022/05/08 07:56:17;;;;;;;14.43;10.10;;;;;;;;;;5073466;28;20422;-60
2022/05/08 07:58:43;;;;;;;11.87;10.97;;;;;;;;;;5073246;28;20750;-60
2022/05/08 08:01:10;;;;;;;11.40;10.57;;;;;;;;;;5073120;28;20463;-61
2022/05/08 08:03:36;;;;;;;10.30;9.30;;;;;;;;;;5073163;28;20794;-61
2022/05/08 08:06:02;;;;;;;11.60;10.50;;;;;;;;;;5073195;28;20406;-61
2022/05/08 08:08:28;;;;;;;11.07;10.30;;;;;;;;;;5073050;28;20402;-60
2022/05/08 08:10:58;;;;;;;10.40;9.67;;;;;;;;;;5072946;28;20489;-61
2022/05/08 08:13:26;;;;;;;9.10;8.50;;;;;;;;;;5073092;28;20429;-62
2022/05/08 08:15:53;;;;;;;10.13;9.40;;;;;;;;;;5073305;28;20455;-65
2022/05/08 08:18:19;;;;;;;11.30;10.30;;;;;;;;;;5073029;28;20402;-62
2022/05/08 08:20:45;;;;;;;9.60;8.87;;;;;;;;;;5073087;28;20947;-61
2022/05/08 08:23:11;;;;;;;10.63;9.73;;;;;;;;;;5073029;28;20394;-60
2022/05/08 08:25:37;;;;;;;9.70;9.00;;;;;;;;;;5072937;28;20417;-60
2022/05/08 08:28:04;;;;;;;9.37;8.67;;;;;;;;;;5073119;28;20405;-60
2022/05/08 08:30:30;;;;;;;9.83;9.17;;;;;;;;;;5072713;28;20455;-60
2022/05/08 08:32:56;;;;;;;10.70;9.67;;;;;;;;;;5073028;28;20421;-61
2022/05/08 08:35:22;;;;;;;9.70;9.10;;;;;;;;;;5072753;28;20465;-63
2022/05/08 08:37:48;;;;;;;9.57;8.70;;;;;;;;;;5072933;28;20410;-64
2022/05/08 08:40:14;;;;;;;8.73;8.23;;;;;;;;;;5072559;28;20467;-61
2022/05/08 08:42:41;;;;;;;8.93;8.47;;;;;;;;;;5072697;28;20506;-64
2022/05/08 08:47:52;;;;;;;9.13;8.53;;;;;;;;;;5076326;28;20455;-61
2022/05/08 08:50:18;;;;;;;8.73;8.10;;;;;;;;;;5076345;28;20473;-61
2022/05/08 08:52:48;;;;;;;8.80;8.20;;;;;;;;;;5076390;28;20399;-65
2022/05/08 08:55:15;;;;;;;7.37;7.07;;;;;;;;;;5076487;28;20525;-61
2022/05/08 08:57:41;;;;;;;11.80;8.20;;;;;;;;;;5076328;28;20407;-64
2022/05/08 09:00:07;;;;;;;8.33;7.70;;;;;;;;;;5076279;28;20471;-63
2022/05/08 09:02:34;;;;;;;7.73;7.13;;;;;;;;;;5076174;28;20409;-63
2022/05/08 09:05:04;;;;;;;8.67;8.13;;;;;;;;;;5076140;28;20946;-63
2022/05/08 09:07:39;;;;;;;7.57;7.17;;;;;;;;;;5076122;28;20402;-62
2022/05/08 09:10:22;;;;;;;7.53;6.83;;;;;;;;;;5075962;28;20493;-62
2022/05/08 09:12:54;;;;;;;13.57;8.67;;;;;;;;;;5076271;28;20410;-62
2022/05/08 09:15:20;;;;;;;9.70;9.03;;;;;;;;;;5074664;28;20415;-62
2022/05/08 09:17:47;;;;;;;8.17;7.50;;;;;;;;;;5075918;28;20434;-62
2022/05/08 09:20:26;;;;;;;9.83;8.47;;;;;;;;;;5075840;28;20395;-61
2022/05/08 09:22:59;;;;;;;7.07;6.53;;;;;;;;;;5075796;28;20402;-62
2022/05/08 09:25:25;;;;;;;8.93;8.27;;;;;;;;;;5075912;28;20410;-62
2022/05/08 09:28:01;;;;;;;8.80;7.90;;;;;;;;;;5075718;28;20438;-64
2022/05/08 09:30:27;;;;;;;12.33;7.73;;;;;;;;;;5075590;28;20951;-61
2022/05/08 09:32:53;;;;;;;7.90;7.30;;;;;;;;;;5075628;28;20416;-60
2022/05/08 09:35:19;;;;;;;7.67;7.03;;;;;;;;;;5075619;28;20433;-65
2022/05/08 09:37:52;;;;;;;7.97;7.30;;;;;;;;;;5075485;28;20920;-60
2022/05/08 09:40:19;;;;;;;10.90;9.93;;;;;;;;;;5075432;28;20471;-59
2022/05/08 09:42:46;;;;;;;6.60;6.30;;;;;;;;;;5075459;28;20931;-59
2022/05/08 09:45:13;;;;;;;9.83;7.20;;;;;;;;;;5075723;28;20447;-60
2022/05/08 09:47:43;;;;;;;8.20;7.57;;;;;;;;;;5075297;28;20411;-60
2022/05/08 09:50:12;;;;;;;18.57;14.37;;;;;;;;;;5075151;28;20467;-60
2022/05/08 09:52:39;;;;;;;6.73;6.30;;;;;;;;;;5075379;28;20413;-61
2022/05/08 09:55:06;;;;;;;6.37;6.00;;;;;;;;;;5075208;28;20417;-61
2022/05/08 09:57:33;;;;;;;6.43;5.87;;;;;;;;;;5074994;28;20403;-62
2022/05/08 10:00:00;;;;;;;7.10;6.33;;;;;;;;;;5075089;28;20899;-63
2022/05/08 10:02:26;;;;;;;6.60;6.30;;;;;;;;;;5075142;28;20468;-60
2022/05/08 10:04:53;;;;;;;6.90;6.60;;;;;;;;;;5075042;28;20769;-65
2022/05/08 10:07:20;;;;;;;9.63;6.30;;;;;;;;;;5075032;28;20392;-66
2022/05/08 10:15:33;;;;;;;6.13;4.30;;;;;;;;;;5075030;28;20428;-63
2022/05/08 10:18:32;;;;;;;4.50;4.20;;;;;;;;;;5074723;28;20408;-63
2022/05/08 10:21:04;;;;;;;4.13;3.83;;;;;;;;;;5073613;28;20494;-63
2022/05/08 10:23:37;;;;;;;8.73;4.10;;;;;;;;;;5074687;28;20459;-64
2022/05/08 10:26:14;;;;;;;5.80;5.50;;;;;;;;;;5074539;28;20898;-63
2022/05/08 10:29:00;;;;;;;5.63;5.17;;;;;;;;;;5074569;28;20410;-63
2022/05/08 10:31:43;;;;;;;4.97;4.60;;;;;;;;;;5072758;28;20527;-61
2022/05/08 10:34:09;;;;;;;6.27;6.07;;;;;;;;;;5074412;28;20851;-62
2022/05/08 10:36:35;;;;;;;7.80;6.40;;;;;;;;;;5074604;28;20403;-62
2022/05/08 10:39:21;;;;;;;5.70;5.40;;;;;;;;;;5074094;28;20451;-61
2022/05/08 10:41:49;;;;;;;5.80;5.50;;;;;;;;;;5073598;28;20446;-62
2022/05/08 10:44:47;;;;;;;6.50;6.00;;;;;;;;;;5072925;28;20961;-63
2022/05/08 10:47:32;;;;;;;6.63;6.30;;;;;;;;;;5073041;28;20433;-63
2022/05/08 10:49:58;;;;;;;5.63;5.20;;;;;;;;;;5074059;28;20478;-63
2022/05/08 10:52:24;;;;;;;8.20;7.27;;;;;;;;;;5074305;28;20415;-63
2022/05/08 10:54:57;;;;;;;6.60;6.20;;;;;;;;;;5074019;28;20428;-62
2022/05/08 10:57:29;;;;;;;6.20;5.63;;;;;;;;;;5074302;28;20408;-62
2022/05/08 10:59:55;;;;;;;7.60;6.70;;;;;;;;;;5073990;28;20407;-62
2022/05/08 11:02:40;;;;;;;6.40;6.07;;;;;;;;;;5073918;28;20919;-62
2022/05/08 11:05:07;;;;;;;5.77;5.23;;;;;;;;;;5073891;28;20881;-63
2022/05/08 11:07:33;;;;;;;5.30;4.90;;;;;;;;;;5073764;28;20492;-61
2022/05/08 11:09:59;;;;;;;5.70;5.20;;;;;;;;;;5073296;28;20460;-60
2022/05/08 11:12:25;;;;;;;4.97;4.77;;;;;;;;;;5073774;28;20819;-61
2022/05/08 11:14:51;;;;;;;6.10;5.60;;;;;;;;;;5073820;28;20440;-62
2022/05/08 11:17:19;;;;;;;6.60;5.83;;;;;;;;;;5073605;28;20420;-61
2022/05/08 11:19:52;;;;;;;13.60;6.33;;;;;;;;;;5073761;28;20402;-61
2022/05/08 11:22:18;;;;;;;5.60;5.40;;;;;;;;;;5072955;28;20430;-61
2022/05/08 11:24:49;;;;;;;4.70;4.60;;;;;;;;;;5073588;28;20169;-62
2022/05/08 11:27:15;;;;;;;8.73;4.57;;;;;;;;;;5073546;28;20760;-62
2022/05/08 11:29:48;;;;;;;5.20;4.83;;;;;;;;;;5073461;28;20408;-62
2022/05/08 11:38:02;;;;;;;6.83;5.27;;;;;;;;;;5073367;28;20514;-63
2022/05/08 11:40:28;;;;;;;4.50;4.40;;;;;;;;;;5073133;28;20478;-61
2022/05/08 11:42:54;;;;;;;3.77;3.57;;;;;;;;;;5073329;28;20434;-64
2022/05/08 11:45:21;;;;;;;4.23;4.10;;;;;;;;;;5073315;28;20439;-61
2022/05/08 11:47:54;;;;;;;3.77;3.57;;;;;;;;;;5073621;28;20413;-61
2022/05/08 11:50:20;;;;;;;5.60;3.50;;;;;;;;;;5073197;28;20467;-61
2022/05/08 11:52:46;;;;;;;3.17;3.10;;;;;;;;;;5073536;28;20752;-61
2022/05/08 11:55:13;;;;;;;3.77;3.47;;;;;;;;;;5073277;28;20491;-61
2022/05/08 11:57:45;;;;;;;3.33;3.23;;;;;;;;;;5073256;28;20997;-61
2022/05/08 12:00:13;;;;;;;3.87;3.57;;;;;;;;;;5073479;28;20406;-61
2022/05/08 12:02:39;;;;;;;3.53;3.23;;;;;;;;;;5073180;28;20765;-63
2022/05/08 12:05:05;;;;;;;3.63;3.20;;;;;;;;;;5073185;28;20402;-62
2022/05/08 12:07:40;;;;;;;3.50;3.30;;;;;;;;;;5073168;28;20415;-62
2022/05/08 12:10:07;;;;;;;4.20;3.80;;;;;;;;;;5072910;28;20555;-62
2022/05/08 12:12:33;;;;;;;3.67;3.57;;;;;;;;;;5073001;28;20417;-62
2022/05/08 12:15:06;;;;;;;3.70;3.50;;;;;;;;;;5073066;28;20900;-63
2022/05/08 12:17:51;;;;;;;4.77;3.10;;;;;;;;;;5073066;28;20410;-61
2022/05/08 12:20:18;;;;;;;3.10;3.00;;;;;;;;;;5075338;28;20402;-62
2022/05/08 12:22:46;;;;;;;3.93;3.63;;;;;;;;;;5076923;28;20443;-61
2022/05/08 12:25:12;;;;;;;3.93;3.47;;;;;;;;;;5076750;28;20536;-61
2022/05/08 12:27:39;;;;;;;3.73;3.63;;;;;;;;;;5076793;28;20416;-63
2022/05/08 12:30:07;;;;;;;3.90;3.60;;;;;;;;;;5076688;28;20596;-62
2022/05/08 12:32:37;;;;;;;3.23;3.03;;;;;;;;;;5076776;28;20414;-62
2022/05/08 12:35:03;;;;;;;2.97;2.83;;;;;;;;;;5076959;28;20409;-62
2022/05/08 12:37:30;;;;;;;3.80;3.53;;;;;;;;;;5076731;28;20501;-63
2022/05/08 12:39:56;;;;;;;3.50;3.27;;;;;;;;;;5076492;28;20468;-63
2022/05/08 12:42:22;;;;;;;3.20;3.10;;;;;;;;;;5076591;28;20410;-62
2022/05/08 12:44:48;;;;;;;17.33;15.87;;;;;;;;;;5076557;28;20428;-63
2022/05/08 12:47:14;;;;;;;3.80;3.70;;;;;;;;;;5076494;28;20413;-62
2022/05/08 12:49:41;;;;;;;6.20;3.47;;;;;;;;;;5076681;28;20425;-62
2022/05/08 12:52:08;;;;;;;3.70;3.50;;;;;;;;;;5076455;28;20500;-63
2022/05/08 12:54:35;;;;;;;3.50;3.30;;;;;;;;;;5076340;28;20765;-62
2022/05/08 12:57:02;;;;;;;4.20;3.90;;;;;;;;;;5076296;28;20411;-62
2022/05/08 12:59:46;;;;;;;108.87;94.97;;;;;;;;;;5076315;28;20422;-62
2022/05/08 13:02:13;;;;;;;3.80;3.60;;;;;;;;;;5076521;28;20390;-64
2022/05/08 13:04:39;;;;;;;4.23;3.93;;;;;;;;;;5076217;28;20398;-64
2022/05/08 13:07:05;;;;;;;4.23;3.93;;;;;;;;;;5076183;28;20412;-62
2022/05/08 13:09:31;;;;;;;4.13;4.03;;;;;;;;;;5076041;28;20396;-64
2022/05/08 13:11:57;;;;;;;6.47;4.53;;;;;;;;;;5076245;28;20467;-63
2022/05/08 13:14:23;;;;;;;4.17;3.93;;;;;;;;;;5076309;28;20397;-60
2022/05/08 13:16:50;;;;;;;5.85;4.10;;;;;;;;;;5075891;28;20409;-63
2022/05/08 13:19:16;;;;;;;5.03;4.17;;;;;;;;;;5075983;28;20267;-63
2022/05/08 13:21:44;;;;;;;4.40;4.20;;;;;;;;;;5075938;28;20425;-63
2022/05/08 13:24:10;;;;;;;4.17;3.93;;;;;;;;;;5075829;28;20772;-63
2022/05/08 13:26:36;;;;;;;6.03;4.60;;;;;;;;;;5075676;28;20412;-62
2022/05/08 13:29:03;;;;;;;4.47;4.27;;;;;;;;;;5075751;28;20404;-62
2022/05/08 13:31:29;;;;;;;4.40;4.10;;;;;;;;;;5075148;28;20556;-62
2022/05/08 13:33:54;;;;;;;4.73;4.53;;;;;;;;;;5075602;28;20397;-62
2022/05/08 13:36:20;;;;;;;4.70;4.50;;;;;;;;;;5075582;28;21035;-62
2022/05/08 13:38:46;;;;;;;4.00;3.90;;;;;;;;;;5075771;28;20417;-61
2022/05/08 13:41:14;;;;;;;4.50;4.20;;;;;;;;;;5075322;28;20474;-61
2022/05/08 13:43:41;;;;;;;4.70;4.50;;;;;;;;;;5075716;28;20737;-62
2022/05/08 13:46:07;;;;;;;4.40;4.30;;;;;;;;;;5075457;28;20413;-61
2022/05/08 13:48:36;;;;;;;4.63;4.50;;;;;;;;;;5075276;28;20454;-59
2022/05/08 13:51:02;;;;;;;4.03;3.73;;;;;;;;;;5075425;28;20469;-62
2022/05/08 13:53:28;;;;;;;5.23;4.93;;;;;;;;;;5074001;28;20473;-61
2022/05/08 13:55:56;;;;;;;4.80;4.70;;;;;;;;;;5075236;28;20424;-61
2022/05/08 13:58:22;;;;;;;4.63;4.33;;;;;;;;;;5075203;28;20443;-61
2022/05/08 14:00:48;;;;;;;5.10;4.80;;;;;;;;;;5075416;28;20469;-61
2022/05/08 14:03:19;;;;;;;5.90;4.67;;;;;;;;;;5075331;28;20404;-61
2022/05/08 14:05:46;;;;;;;5.20;4.80;;;;;;;;;;5075351;28;20422;-61
2022/05/08 14:08:12;;;;;;;5.73;5.23;;;;;;;;;;5075015;28;20944;-61
2022/05/08 14:10:38;;;;;;;6.33;5.57;;;;;;;;;;5074995;28;20630;-62
2022/05/08 14:13:04;;;;;;;5.90;4.60;;;;;;;;;;5074819;28;20434;-61
2022/05/08 14:15:31;;;;;;;4.30;4.20;;;;;;;;;;5074799;28;20839;-61
2022/05/08 14:17:57;;;;;;;4.03;4.03;;;;;;;;;;5074922;28;20397;-61
2022/05/08 14:20:26;;;;;;;6.57;5.30;;;;;;;;;;5074880;28;20424;-60
2022/05/08 14:22:52;;;;;;;4.50;4.30;;;;;;;;;;5074505;28;20399;-62
2022/05/08 14:25:18;;;;;;;4.50;4.20;;;;;;;;;;5074450;28;20414;-61
2022/05/08 14:27:44;;;;;;;4.20;4.10;;;;;;;;;;5074463;28;20408;-61
2022/05/08 14:30:11;;;;;;;4.20;4.10;;;;;;;;;;5074347;28;20576;-61
2022/05/08 14:38:08;;;;;;;4.73;4.50;;;;;;;;;;5074250;28;20415;-62
2022/05/08 14:40:34;;;;;;;4.40;4.10;;;;;;;;;;5074016;28;20487;-62
2022/05/08 14:43:00;;;;;;;4.77;4.57;;;;;;;;;;5073516;28;20448;-62
2022/05/08 14:45:28;;;;;;;4.03;3.83;;;;;;;;;;5074126;28;20799;-62
2022/05/08 14:47:54;;;;;;;4.00;4.00;;;;;;;;;;5074156;28;20413;-63
2022/05/08 14:50:20;;;;;;;4.70;4.30;;;;;;;;;;5073993;28;20451;-63
2022/05/08 14:52:46;;;;;;;4.67;4.30;;;;;;;;;;5074136;28;20766;-62
2022/05/08 14:55:13;;;;;;;43.13;35.53;;;;;;;;;;5073789;28;20445;-62
2022/05/08 14:57:40;;;;;;;12.40;11.27;;;;;;;;;;5073796;28;20494;-62
2022/05/08 15:00:06;;;;;;;5.37;5.07;;;;;;;;;;5073882;28;20911;-62
2022/05/08 15:02:32;;;;;;;4.83;4.50;;;;;;;;;;5073907;28;20415;-63
2022/05/08 15:04:58;;;;;;;5.10;4.40;;;;;;;;;;5073831;28;20499;-62
2022/05/08 15:07:24;;;;;;;4.77;4.57;;;;;;;;;;5073781;28;20415;-66
2022/05/08 15:09:50;;;;;;;6.00;5.67;;;;;;;;;;5073519;28;20889;-62